Time,TemperatureF,DewpointF,PressureIn,WindDirection,WindDirectionDegrees,WindSpeedMPH,WindSpeedGustMPH,Humidity,HourlyPrecipIn,Conditions,Clouds,dailyrainin,SoftwareType,DateUTC
2015-04-20 00:00:00,48.0,-99.9,29.88,South,180,7.0,-999.0,-999,-99.99,,,-99.99,,2015-04-20 07:00:00,
2015-04-20 00:52:00,48.0,-99.9,29.88,South,180,7.0,-999.0,-999,-99.99,,,-99.99,,2015-04-20 07:52:00,
2015-04-20 01:00:00,48.0,-99.9,29.87,SSW,202,6.0,-999.0,-999,-99.99,,,-99.99,,2015-04-20 08:00:00,
2015-04-20 01:42:00,48.0,-99.9,29.87,SSW,202,6.0,-999.0,-999,-99.99,,,-99.99,,2015-04-20 08:42:00,
2015-04-20 01:52:00,48.0,-99.9,29.87,SSW,202,6.0,-999.0,-999,-99.99,,,-99.99,,2015-04-20 08:52:00,
2015-04-20 02:00:00,48.0,-99.9,29.86,North,-9999,0.0,-999.0,-999,-99.99,,,-99.99,,2015-04-20 09:00:00,
2015-04-20 02:31:00,48.0,-99.9,29.86,North,-9999,0.0,-999.0,-999,-99.99,,,-99.99,,2015-04-20 09:31:00,
2015-04-20 02:42:00,48.0,-99.9,29.86,North,-9999,0.0,-999.0,-999,-99.99,,,-99.99,,2015-04-20 09:42:00,
2015-04-20 02:52:00,48.0,-99.9,29.86,North,-9999,0.0,-999.0,-999,-99.99,,,-99.99,,2015-04-20 09:52:00,
2015-04-20 03:00:00,47.0,-99.9,29.85,North,-9999,0.0,-999.0,-999,-99.99,,,-99.99,,2015-04-20 10:00:00,
2015-04-20 03:42:00,47.0,-99.9,29.85,North,-9999,0.0,-999.0,-999,-99.99,,,-99.99,,2015-04-20 10:42:00,
2015-04-20 03:52:00,47.0,-99.9,29.85,North,-9999,0.0,-999.0,-999,-99.99,,,-99.99,,2015-04-20 10:52:00,
2015-04-20 04:00:00,47.0,-99.9,29.85,North,-9999,0.0,-999.0,-999,-99.99,,,-99.99,,2015-04-20 11:00:00,
2015-04-20 04:32:00,47.0,-99.9,29.85,North,-9999,0.0,-999.0,-999,-99.99,,,-99.99,,2015-04-20 11:32:00,
2015-04-20 04:42:00,47.0,-99.9,29.85,North,-9999,0.0,-999.0,-999,-99.99,,,-99.99,,2015-04-20 11:42:00,
2015-04-20 04:52:00,47.0,-99.9,29.85,North,-9999,0.0,-999.0,-999,-99.99,,,-99.99,,2015-04-20 11:52:00,
2015-04-20 05:00:00,48.0,-99.9,29.85,North,-9999,0.0,-999.0,-999,-99.99,,,-99.99,,2015-04-20 12:00:00,
2015-04-20 05:32:00,48.0,-99.9,29.85,North,-9999,0.0,-999.0,-999,-99.99,,,-99.99,,2015-04-20 12:32:00,
2015-04-20 05:42:00,48.0,-99.9,29.85,North,-9999,0.0,-999.0,-999,-99.99,,,-99.99,,2015-04-20 12:42:00,
2015-04-20 05:52:00,48.0,-99.9,29.85,North,-9999,0.0,-999.0,-999,-99.99,,,-99.99,,2015-04-20 12:52:00,
2015-04-20 06:00:00,48.0,-99.9,29.86,North,-9999,0.0,-999.0,-999,-99.99,,,-99.99,,2015-04-20 13:00:00,
2015-04-20 06:21:00,48.0,-99.9,29.86,North,-9999,0.0,-999.0,-999,-99.99,,,-99.99,,2015-04-20 13:21:00,
2015-04-20 06:32:00,48.0,-99.9,29.86,North,-9999,0.0,-999.0,-999,-99.99,,,-99.99,,2015-04-20 13:32:00,
2015-04-20 06:42:00,48.0,-99.9,29.86,North,-9999,0.0,-999.0,-999,-99.99,,,-99.99,,2015-04-20 13:42:00,
2015-04-20 06:52:00,48.0,-99.9,29.86,North,-9999,0.0,-999.0,-999,-99.99,,,-99.99,,2015-04-20 13:52:00,
2015-04-20 07:00:00,48.0,-99.9,29.86,North,-9999,0.0,-999.0,-999,-99.99,,,-99.99,,2015-04-20 14:00:00,
2015-04-20 07:52:00,48.0,-99.9,29.86,North,-9999,0.0,-999.0,-999,-99.99,,,-99.99,,2015-04-20 14:52:00,
2015-04-20 08:00:00,49.0,-99.9,29.87,North,-9999,0.0,-999.0,-999,-99.99,,,-99.99,,2015-04-20 15:00:00,
2015-04-20 08:32:00,49.0,-99.9,29.87,North,-9999,0.0,-999.0,-999,-99.99,,,-99.99,,2015-04-20 15:32:00,
2015-04-20 08:42:00,49.0,-99.9,29.87,North,-9999,0.0,-999.0,-999,-99.99,,,-99.99,,2015-04-20 15:42:00,
2015-04-20 08:52:00,49.0,-99.9,29.87,North,-9999,0.0,-999.0,-999,-99.99,,,-99.99,,2015-04-20 15:52:00,
2015-04-20 09:00:00,49.0,-99.9,29.88,NNW,337,3.0,-999.0,-999,-99.99,,,-99.99,,2015-04-20 16:00:00,
2015-04-20 09:32:00,49.0,-99.9,29.88,NNW,337,3.0,-999.0,-999,-99.99,,,-99.99,,2015-04-20 16:32:00,
2015-04-20 09:42:00,49.0,-99.9,29.88,NNW,337,3.0,-999.0,-999,-99.99,,,-99.99,,2015-04-20 16:42:00,
2015-04-20 09:52:00,49.0,-99.9,29.88,NNW,337,3.0,-999.0,-999,-99.99,,,-99.99,,2015-04-20 16:52:00,
2015-04-20 10:32:00,49.0,-99.9,29.88,NNW,337,3.0,-999.0,-999,-99.99,,,-99.99,,2015-04-20 17:32:00,
2015-04-20 10:43:00,49.0,-99.9,29.88,NNW,337,3.0,-999.0,-999,-99.99,,,-99.99,,2015-04-20 17:43:00,
2015-04-20 10:52:00,49.0,-99.9,29.88,NNW,337,3.0,-999.0,-999,-99.99,,,-99.99,,2015-04-20 17:52:00,
2015-04-20 11:00:00,49.0,-99.9,29.89,North,360,5.0,-999.0,-999,-99.99,,,-99.99,,2015-04-20 18:00:00,
2015-04-20 11:32:00,49.0,-99.9,29.89,North,360,5.0,-999.0,-999,-99.99,,,-99.99,,2015-04-20 18:32:00,
2015-04-20 11:43:00,49.0,-99.9,29.89,North,360,5.0,-999.0,-999,-99.99,,,-99.99,,2015-04-20 18:43:00,
2015-04-20 11:52:00,49.0,-99.9,29.89,North,360,5.0,-999.0,-999,-99.99,,,-99.99,,2015-04-20 18:52:00,
2015-04-20 12:00:00,50.0,-99.9,29.89,NW,315,6.0,-999.0,-999,-99.99,,,-99.99,,2015-04-20 19:00:00,
2015-04-20 12:32:00,50.0,-99.9,29.89,NW,315,6.0,-999.0,-999,-99.99,,,-99.99,,2015-04-20 19:32:00,
2015-04-20 12:42:00,50.0,-99.9,29.89,NW,315,6.0,-999.0,-999,-99.99,,,-99.99,,2015-04-20 19:42:00,
2015-04-20 12:52:00,50.0,-99.9,29.89,NW,315,6.0,-999.0,-999,-99.99,,,-99.99,,2015-04-20 19:52:00,
2015-04-20 13:00:00,51.0,-99.9,29.89,NNW,337,5.0,-999.0,-999,-99.99,,,-99.99,,2015-04-20 20:00:00,
2015-04-20 13:32:00,51.0,-99.9,29.89,NNW,337,5.0,-999.0,-999,-99.99,,,-99.99,,2015-04-20 20:32:00,
2015-04-20 13:42:00,51.0,-99.9,29.89,NNW,337,5.0,-999.0,-999,-99.99,,,-99.99,,2015-04-20 20:42:00,
2015-04-20 13:52:00,51.0,-99.9,29.89,NNW,337,5.0,-999.0,-999,-99.99,,,-99.99,,2015-04-20 20:52:00,
2015-04-20 14:00:00,52.0,-99.9,29.89,WNW,292,6.0,-999.0,-999,-99.99,,,-99.99,,2015-04-20 21:00:00,
2015-04-20 14:32:00,52.0,-99.9,29.89,WNW,292,6.0,-999.0,-999,-99.99,,,-99.99,,2015-04-20 21:32:00,
2015-04-20 14:42:00,52.0,-99.9,29.89,WNW,292,6.0,-999.0,-999,-99.99,,,-99.99,,2015-04-20 21:42:00,
2015-04-20 14:52:00,52.0,-99.9,29.89,WNW,292,6.0,-999.0,-999,-99.99,,,-99.99,,2015-04-20 21:52:00,
2015-04-20 15:00:00,53.0,-99.9,29.89,WNW,292,8.0,-999.0,-999,-99.99,,,-99.99,,2015-04-20 22:00:00,
2015-04-20 15:31:00,53.0,-99.9,29.89,WNW,292,8.0,-999.0,-999,-99.99,,,-99.99,,2015-04-20 22:31:00,
2015-04-20 15:42:00,53.0,-99.9,29.89,WNW,292,8.0,-999.0,-999,-99.99,,,-99.99,,2015-04-20 22:42:00,
2015-04-20 15:52:00,53.0,-99.9,29.89,WNW,292,8.0,-999.0,-999,-99.99,,,-99.99,,2015-04-20 22:52:00,
2015-04-20 16:00:00,52.0,-99.9,29.89,WNW,292,6.0,-999.0,-999,-99.99,,,-99.99,,2015-04-20 23:00:00,
2015-04-20 16:42:00,52.0,-99.9,29.89,WNW,292,6.0,-999.0,-999,-99.99,,,-99.99,,2015-04-20 23:42:00,
2015-04-20 16:52:00,52.0,-99.9,29.89,WNW,292,6.0,-999.0,-999,-99.99,,,-99.99,,2015-04-20 23:52:00,
2015-04-20 17:00:00,52.0,-99.9,29.87,WNW,292,6.0,-999.0,-999,-99.99,,,-99.99,,2015-04-21 00:00:00,
2015-04-20 17:22:00,52.0,-99.9,29.87,WNW,292,6.0,-999.0,-999,-99.99,,,-99.99,,2015-04-21 00:22:00,
2015-04-20 17:31:00,52.0,-99.9,29.87,WNW,292,6.0,-999.0,-999,-99.99,,,-99.99,,2015-04-21 00:31:00,
2015-04-20 17:52:00,52.0,-99.9,29.87,WNW,292,6.0,-999.0,-999,-99.99,,,-99.99,,2015-04-21 00:52:00,
2015-04-20 19:00:00,51.0,-99.9,29.87,NNW,337,6.0,-999.0,-999,-99.99,,,-99.99,,2015-04-21 02:00:00,
2015-04-20 19:21:00,51.0,-99.9,29.87,NNW,337,6.0,-999.0,-999,-99.99,,,-99.99,,2015-04-21 02:21:00,
2015-04-20 19:31:00,51.0,-99.9,29.87,NNW,337,6.0,-999.0,-999,-99.99,,,-99.99,,2015-04-21 02:31:00,
2015-04-20 19:42:00,51.0,-99.9,29.87,NNW,337,6.0,-999.0,-999,-99.99,,,-99.99,,2015-04-21 02:42:00,
2015-04-20 19:52:00,51.0,-99.9,29.87,NNW,337,6.0,-999.0,-999,-99.99,,,-99.99,,2015-04-21 02:52:00,
2015-04-20 20:00:00,50.0,-99.9,29.90,North,360,7.0,-999.0,-999,-99.99,,,-99.99,,2015-04-21 03:00:00,
2015-04-20 20:21:00,50.0,-99.9,29.90,North,360,7.0,-999.0,-999,-99.99,,,-99.99,,2015-04-21 03:21:00,
2015-04-20 20:31:00,50.0,-99.9,29.90,North,360,7.0,-999.0,-999,-99.99,,,-99.99,,2015-04-21 03:31:00,
2015-04-20 20:42:00,50.0,-99.9,29.90,North,360,7.0,-999.0,-999,-99.99,,,-99.99,,2015-04-21 03:42:00,
2015-04-20 20:52:00,50.0,-99.9,29.90,North,360,7.0,-999.0,-999,-99.99,,,-99.99,,2015-04-21 03:52:00,
2015-04-20 21:00:00,50.0,-99.9,29.91,NW,315,5.0,-999.0,-999,-99.99,,,-99.99,,2015-04-21 04:00:00,
2015-04-20 21:21:00,50.0,-99.9,29.91,NW,315,5.0,-999.0,-999,-99.99,,,-99.99,,2015-04-21 04:21:00,
2015-04-20 21:32:00,50.0,-99.9,29.91,NW,315,5.0,-999.0,-999,-99.99,,,-99.99,,2015-04-21 04:32:00,
2015-04-20 21:42:00,50.0,-99.9,29.91,NW,315,5.0,-999.0,-999,-99.99,,,-99.99,,2015-04-21 04:42:00,
2015-04-20 21:52:00,50.0,-99.9,29.91,NW,315,5.0,-999.0,-999,-99.99,,,-99.99,,2015-04-21 04:52:00,
2015-04-20 22:00:00,50.0,-99.9,29.91,North,-9999,0.0,-999.0,-999,-99.99,,,-99.99,,2015-04-21 05:00:00,
2015-04-20 22:22:00,50.0,-99.9,29.91,North,-9999,0.0,-999.0,-999,-99.99,,,-99.99,,2015-04-21 05:22:00,
2015-04-20 22:32:00,50.0,-99.9,29.91,North,-9999,0.0,-999.0,-999,-99.99,,,-99.99,,2015-04-21 05:32:00,
2015-04-20 22:42:00,50.0,-99.9,29.91,North,-9999,0.0,-999.0,-999,-99.99,,,-99.99,,2015-04-21 05:42:00,
2015-04-20 22:52:00,50.0,-99.9,29.91,North,-9999,0.0,-999.0,-999,-99.99,,,-99.99,,2015-04-21 05:52:00,
2015-04-20 23:22:00,49.0,-99.9,29.90,NW,315,5.0,-999.0,-999,-99.99,,,-99.99,,2015-04-21 06:22:00,